sensor_id;sensor_type;location;lat;lon;timestamp;temperature;humidity
75782;DHT22;64400;44.762;37.698;2023-02-01T00:01:24;2.38;95.56
75782;DHT22;64400;44.762;37.698;2023-02-01T00:03:52;2.37;95.73
75782;DHT22;64400;44.762;37.698;2023-02-01T00:06:20;2.35;95.58
75782;DHT22;64400;44.762;37.698;2023-02-01T00:08:51;2.35;95.78
75782;DHT22;64400;44.762;37.698;2023-02-01T00:11:20;2.36;95.51
75782;DHT22;64400;44.762;37.698;2023-02-01T00:13:49;2.36;95.29
75782;DHT22;64400;44.762;37.698;2023-02-01T00:16:23;2.34;95.07
75782;DHT22;64400;44.762;37.698;2023-02-01T00:18:58;2.31;95.49
75782;DHT22;64400;44.762;37.698;2023-02-01T00:21:26;2.30;95.36
75782;DHT22;64400;44.762;37.698;2023-02-01T00:23:55;2.28;95.44
75782;DHT22;64400;44.762;37.698;2023-02-01T00:26:30;2.26;95.47
75782;DHT22;64400;44.762;37.698;2023-02-01T00:29:00;2.25;96.16
75782;DHT22;64400;44.762;37.698;2023-02-01T00:31:29;2.23;96.10
75782;DHT22;64400;44.762;37.698;2023-02-01T00:33:57;2.22;96.25
75782;DHT22;64400;44.762;37.698;2023-02-01T00:36:25;2.17;96.12
75782;DHT22;64400;44.762;37.698;2023-02-01T00:38:54;2.15;96.29
75782;DHT22;64400;44.762;37.698;2023-02-01T00:41:22;2.13;96.81
75782;DHT22;64400;44.762;37.698;2023-02-01T00:43:51;2.16;97.26
75782;DHT22;64400;44.762;37.698;2023-02-01T00:46:19;2.17;97.46
75782;DHT22;64400;44.762;37.698;2023-02-01T00:48:49;2.16;97.22
75782;DHT22;64400;44.762;37.698;2023-02-01T00:51:20;2.17;96.76
75782;DHT22;64400;44.762;37.698;2023-02-01T00:53:49;2.19;96.77
75782;DHT22;64400;44.762;37.698;2023-02-01T00:56:18;2.17;96.97
75782;DHT22;64400;44.762;37.698;2023-02-01T00:58:46;2.12;97.10
75782;DHT22;64400;44.762;37.698;2023-02-01T01:01:17;2.03;96.86
75782;DHT22;64400;44.762;37.698;2023-02-01T01:03:49;1.99;97.43
75782;DHT22;64400;44.762;37.698;2023-02-01T01:06:22;1.99;97.12
75782;DHT22;64400;44.762;37.698;2023-02-01T01:08:53;1.99;96.67
75782;DHT22;64400;44.762;37.698;2023-02-01T01:11:33;1.98;96.78
75782;DHT22;64400;44.762;37.698;2023-02-01T01:14:01;1.97;96.19
75782;DHT22;64400;44.762;37.698;2023-02-01T01:16:31;1.90;96.26
75782;DHT22;64400;44.762;37.698;2023-02-01T01:19:00;1.85;96.42
75782;DHT22;64400;44.762;37.698;2023-02-01T01:21:29;1.84;96.56
75782;DHT22;64400;44.762;37.698;2023-02-01T01:23:58;1.77;96.78
75782;DHT22;64400;44.762;37.698;2023-02-01T01:26:28;1.69;97.17
75782;DHT22;64400;44.762;37.698;2023-02-01T01:28:57;1.69;96.99
75782;DHT22;64400;44.762;37.698;2023-02-01T01:31:26;1.68;97.31
75782;DHT22;64400;44.762;37.698;2023-02-01T01:33:57;1.65;97.26
75782;DHT22;64400;44.762;37.698;2023-02-01T01:36:27;1.60;97.67
75782;DHT22;64400;44.762;37.698;2023-02-01T01:38:56;1.60;98.06
75782;DHT22;64400;44.762;37.698;2023-02-01T01:41:28;1.50;98.29
75782;DHT22;64400;44.762;37.698;2023-02-01T01:44:01;1.52;98.62
75782;DHT22;64400;44.762;37.698;2023-02-01T01:46:33;1.57;97.69
75782;DHT22;64400;44.762;37.698;2023-02-01T01:49:17;1.60;96.96
75782;DHT22;64400;44.762;37.698;2023-02-01T01:51:54;1.55;97.39
75782;DHT22;64400;44.762;37.698;2023-02-01T01:54:37;1.45;98.13
75782;DHT22;64400;44.762;37.698;2023-02-01T01:57:14;1.48;97.45
75782;DHT22;64400;44.762;37.698;2023-02-01T01:59:47;1.52;96.45
75782;DHT22;64400;44.762;37.698;2023-02-01T02:02:17;1.51;96.46
75782;DHT22;64400;44.762;37.698;2023-02-01T02:04:47;1.52;96.56
75782;DHT22;64400;44.762;37.698;2023-02-01T02:07:18;1.52;96.68
75782;DHT22;64400;44.762;37.698;2023-02-01T02:09:48;1.47;96.59
75782;DHT22;64400;44.762;37.698;2023-02-01T02:12:27;1.39;97.20
75782;DHT22;64400;44.762;37.698;2023-02-01T02:14:56;1.33;97.89
75782;DHT22;64400;44.762;37.698;2023-02-01T02:18:31;1.42;98.90
75782;DHT22;64400;44.762;37.698;2023-02-01T02:20:45;1.49;98.60
75782;DHT22;64400;44.762;37.698;2023-02-01T02:29:08;1.52;98.08
75782;DHT22;64400;44.762;37.698;2023-02-01T02:40:07;1.50;97.88
75782;DHT22;64400;44.762;37.698;2023-02-01T02:42:47;1.50;97.53
75782;DHT22;64400;44.762;37.698;2023-02-01T02:45:43;1.28;98.24
75782;DHT22;64400;44.762;37.698;2023-02-01T02:48:38;1.33;98.26
75782;DHT22;64400;44.762;37.698;2023-02-01T02:51:32;1.39;97.75
75782;DHT22;64400;44.762;37.698;2023-02-01T02:54:31;1.40;97.21
75782;DHT22;64400;44.762;37.698;2023-02-01T02:57:27;1.42;97.07
75782;DHT22;64400;44.762;37.698;2023-02-01T03:00:17;1.45;96.71
75782;DHT22;64400;44.762;37.698;2023-02-01T03:03:05;1.46;96.83
75782;DHT22;64400;44.762;37.698;2023-02-01T03:05:52;1.49;96.97
75782;DHT22;64400;44.762;37.698;2023-02-01T03:08:26;1.49;97.14
75782;DHT22;64400;44.762;37.698;2023-02-01T03:19:06;1.54;97.32
75782;DHT22;64400;44.762;37.698;2023-02-01T03:21:58;1.54;97.23
75782;DHT22;64400;44.762;37.698;2023-02-01T03:24:45;1.56;96.91
75782;DHT22;64400;44.762;37.698;2023-02-01T03:27:18;1.58;96.25
75782;DHT22;64400;44.762;37.698;2023-02-01T03:32:19;1.54;97.35
75782;DHT22;64400;44.762;37.698;2023-02-01T03:34:48;1.56;96.84
75782;DHT22;64400;44.762;37.698;2023-02-01T03:37:26;1.57;96.75
75782;DHT22;64400;44.762;37.698;2023-02-01T03:40:02;1.52;96.83
75782;DHT22;64400;44.762;37.698;2023-02-01T03:42:48;1.53;97.15
75782;DHT22;64400;44.762;37.698;2023-02-01T03:45:59;1.53;97.03
75782;DHT22;64400;44.762;37.698;2023-02-01T03:48:18;1.53;97.00
75782;DHT22;64400;44.762;37.698;2023-02-01T03:50:52;1.54;97.19
75782;DHT22;64400;44.762;37.698;2023-02-01T03:53:22;1.57;97.04
75782;DHT22;64400;44.762;37.698;2023-02-01T03:55:52;1.61;97.88
75782;DHT22;64400;44.762;37.698;2023-02-01T03:58:22;1.66;97.56
75782;DHT22;64400;44.762;37.698;2023-02-01T04:00:54;1.70;97.76
75782;DHT22;64400;44.762;37.698;2023-02-01T04:03:23;1.72;97.68
75782;DHT22;64400;44.762;37.698;2023-02-01T04:05:53;1.78;97.10
75782;DHT22;64400;44.762;37.698;2023-02-01T04:08:25;1.83;97.46
75782;DHT22;64400;44.762;37.698;2023-02-01T04:10:53;1.83;97.33
75782;DHT22;64400;44.762;37.698;2023-02-01T04:13:21;1.86;97.71
75782;DHT22;64400;44.762;37.698;2023-02-01T04:15:49;1.87;97.96
75782;DHT22;64400;44.762;37.698;2023-02-01T04:18:17;1.86;97.26
75782;DHT22;64400;44.762;37.698;2023-02-01T04:20:45;1.87;97.68
75782;DHT22;64400;44.762;37.698;2023-02-01T04:23:13;1.87;97.70
75782;DHT22;64400;44.762;37.698;2023-02-01T04:25:43;1.91;98.16
75782;DHT22;64400;44.762;37.698;2023-02-01T04:28:11;1.87;98.75
75782;DHT22;64400;44.762;37.698;2023-02-01T04:30:39;1.91;98.59
75782;DHT22;64400;44.762;37.698;2023-02-01T04:33:07;1.98;98.50
75782;DHT22;64400;44.762;37.698;2023-02-01T04:35:36;2.03;97.82
75782;DHT22;64400;44.762;37.698;2023-02-01T04:38:04;2.09;97.89
75782;DHT22;64400;44.762;37.698;2023-02-01T04:40:32;2.13;98.45
75782;DHT22;64400;44.762;37.698;2023-02-01T04:43:03;2.13;98.10
75782;DHT22;64400;44.762;37.698;2023-02-01T04:45:31;2.14;97.94
75782;DHT22;64400;44.762;37.698;2023-02-01T04:48:00;2.14;97.10
75782;DHT22;64400;44.762;37.698;2023-02-01T04:50:28;2.17;97.79
75782;DHT22;64400;44.762;37.698;2023-02-01T04:52:56;2.17;97.23
75782;DHT22;64400;44.762;37.698;2023-02-01T04:55:24;2.20;97.92
75782;DHT22;64400;44.762;37.698;2023-02-01T04:57:52;2.13;97.48
75782;DHT22;64400;44.762;37.698;2023-02-01T05:00:20;2.17;97.52
75782;DHT22;64400;44.762;37.698;2023-02-01T05:02:49;2.22;97.36
75782;DHT22;64400;44.762;37.698;2023-02-01T05:05:17;2.24;97.11
75782;DHT22;64400;44.762;37.698;2023-02-01T05:07:45;2.30;96.67
75782;DHT22;64400;44.762;37.698;2023-02-01T05:10:14;2.42;96.20
75782;DHT22;64400;44.762;37.698;2023-02-01T05:12:44;2.57;95.54
75782;DHT22;64400;44.762;37.698;2023-02-01T05:15:30;2.69;94.40
75782;DHT22;64400;44.762;37.698;2023-02-01T05:17:58;2.73;92.86
75782;DHT22;64400;44.762;37.698;2023-02-01T05:20:27;2.81;92.24
75782;DHT22;64400;44.762;37.698;2023-02-01T05:22:55;2.87;91.40
75782;DHT22;64400;44.762;37.698;2023-02-01T05:25:27;2.91;89.50
75782;DHT22;64400;44.762;37.698;2023-02-01T05:27:55;3.06;89.95
75782;DHT22;64400;44.762;37.698;2023-02-01T05:30:23;3.42;90.02
75782;DHT22;64400;44.762;37.698;2023-02-01T05:32:52;3.88;91.58
75782;DHT22;64400;44.762;37.698;2023-02-01T05:35:21;4.22;90.27
75782;DHT22;64400;44.762;37.698;2023-02-01T05:37:52;4.38;89.60
75782;DHT22;64400;44.762;37.698;2023-02-01T05:40:20;4.57;89.73
75782;DHT22;64400;44.762;37.698;2023-02-01T05:42:48;4.86;88.80
75782;DHT22;64400;44.762;37.698;2023-02-01T05:45:17;5.00;88.15
75782;DHT22;64400;44.762;37.698;2023-02-01T05:47:45;5.02;87.19
75782;DHT22;64400;44.762;37.698;2023-02-01T05:50:13;5.11;87.22
75782;DHT22;64400;44.762;37.698;2023-02-01T05:52:42;5.16;86.97
75782;DHT22;64400;44.762;37.698;2023-02-01T05:55:10;5.28;86.65
75782;DHT22;64400;44.762;37.698;2023-02-01T05:57:38;5.41;84.81
75782;DHT22;64400;44.762;37.698;2023-02-01T06:00:07;5.63;83.84
75782;DHT22;64400;44.762;37.698;2023-02-01T06:02:39;5.78;82.89
75782;DHT22;64400;44.762;37.698;2023-02-01T06:05:09;5.94;82.74
75782;DHT22;64400;44.762;37.698;2023-02-01T06:07:39;5.96;82.26
75782;DHT22;64400;44.762;37.698;2023-02-01T06:10:09;6.02;82.72
75782;DHT22;64400;44.762;37.698;2023-02-01T06:12:39;6.04;81.84
75782;DHT22;64400;44.762;37.698;2023-02-01T06:15:07;6.26;82.38
75782;DHT22;64400;44.762;37.698;2023-02-01T06:17:35;6.48;80.91
75782;DHT22;64400;44.762;37.698;2023-02-01T06:20:04;6.74;79.95
75782;DHT22;64400;44.762;37.698;2023-02-01T06:22:34;7.00;78.33
75782;DHT22;64400;44.762;37.698;2023-02-01T06:25:05;7.32;77.01
75782;DHT22;64400;44.762;37.698;2023-02-01T06:27:33;7.69;76.45
75782;DHT22;64400;44.762;37.698;2023-02-01T06:30:03;7.90;74.17
75782;DHT22;64400;44.762;37.698;2023-02-01T06:32:38;8.23;72.14
75782;DHT22;64400;44.762;37.698;2023-02-01T06:35:10;8.49;70.92
75782;DHT22;64400;44.762;37.698;2023-02-01T06:37:44;8.68;71.67
75782;DHT22;64400;44.762;37.698;2023-02-01T06:40:13;8.76;69.91
75782;DHT22;64400;44.762;37.698;2023-02-01T06:42:48;8.83;68.94
75782;DHT22;64400;44.762;37.698;2023-02-01T06:45:18;9.04;68.95
75782;DHT22;64400;44.762;37.698;2023-02-01T06:47:47;9.40;68.82
75782;DHT22;64400;44.762;37.698;2023-02-01T06:50:15;9.75;67.33
75782;DHT22;64400;44.762;37.698;2023-02-01T06:52:43;10.14;67.03
75782;DHT22;64400;44.762;37.698;2023-02-01T06:55:12;10.30;64.16
75782;DHT22;64400;44.762;37.698;2023-02-01T06:57:41;10.79;62.41
75782;DHT22;64400;44.762;37.698;2023-02-01T07:00:16;11.17;61.33
75782;DHT22;64400;44.762;37.698;2023-02-01T07:02:44;11.52;60.94
75782;DHT22;64400;44.762;37.698;2023-02-01T07:05:19;11.82;56.42
75782;DHT22;64400;44.762;37.698;2023-02-01T07:07:47;12.14;56.55
75782;DHT22;64400;44.762;37.698;2023-02-01T07:10:22;12.29;55.59
75782;DHT22;64400;44.762;37.698;2023-02-01T07:12:51;12.49;56.45
75782;DHT22;64400;44.762;37.698;2023-02-01T07:15:19;12.46;54.94
75782;DHT22;64400;44.762;37.698;2023-02-01T07:17:47;12.27;55.91
75782;DHT22;64400;44.762;37.698;2023-02-01T07:20:24;11.26;60.22
75782;DHT22;64400;44.762;37.698;2023-02-01T07:22:58;10.37;60.99
75782;DHT22;64400;44.762;37.698;2023-02-01T07:25:27;10.29;62.79
75782;DHT22;64400;44.762;37.698;2023-02-01T07:27:55;10.85;62.13
75782;DHT22;64400;44.762;37.698;2023-02-01T07:30:30;11.40;60.85
75782;DHT22;64400;44.762;37.698;2023-02-01T07:32:58;11.17;61.11
75782;DHT22;64400;44.762;37.698;2023-02-01T07:35:29;10.81;62.04
75782;DHT22;64400;44.762;37.698;2023-02-01T07:37:57;10.74;63.37
75782;DHT22;64400;44.762;37.698;2023-02-01T07:40:32;10.52;60.10
75782;DHT22;64400;44.762;37.698;2023-02-01T07:43:00;10.43;66.04
75782;DHT22;64400;44.762;37.698;2023-02-01T07:45:35;10.74;63.21
75782;DHT22;64400;44.762;37.698;2023-02-01T07:48:04;10.80;64.23
75782;DHT22;64400;44.762;37.698;2023-02-01T07:50:39;10.67;62.25
75782;DHT22;64400;44.762;37.698;2023-02-01T07:53:07;10.19;61.54
75782;DHT22;64400;44.762;37.698;2023-02-01T07:55:42;10.31;63.60
75782;DHT22;64400;44.762;37.698;2023-02-01T07:58:10;10.35;60.97
75782;DHT22;64400;44.762;37.698;2023-02-01T08:00:38;10.43;62.83
75782;DHT22;64400;44.762;37.698;2023-02-01T08:03:24;10.69;64.05
75782;DHT22;64400;44.762;37.698;2023-02-01T08:05:55;10.83;60.39
75782;DHT22;64400;44.762;37.698;2023-02-01T08:08:23;11.31;59.74
75782;DHT22;64400;44.762;37.698;2023-02-01T08:10:57;11.01;59.67
75782;DHT22;64400;44.762;37.698;2023-02-01T08:13:27;11.28;59.75
75782;DHT22;64400;44.762;37.698;2023-02-01T08:16:00;10.95;59.91
75782;DHT22;64400;44.762;37.698;2023-02-01T08:18:28;10.34;62.18
75782;DHT22;64400;44.762;37.698;2023-02-01T08:20:57;9.85;63.37
75782;DHT22;64400;44.762;37.698;2023-02-01T08:23:25;9.66;65.21
75782;DHT22;64400;44.762;37.698;2023-02-01T08:25:53;9.68;64.99
75782;DHT22;64400;44.762;37.698;2023-02-01T08:28:21;9.59;66.14
75782;DHT22;64400;44.762;37.698;2023-02-01T08:30:50;9.80;65.91
75782;DHT22;64400;44.762;37.698;2023-02-01T08:33:18;9.84;64.52
75782;DHT22;64400;44.762;37.698;2023-02-01T08:35:46;9.52;66.01
75782;DHT22;64400;44.762;37.698;2023-02-01T08:38:14;9.64;65.19
75782;DHT22;64400;44.762;37.698;2023-02-01T08:40:42;9.59;66.46
75782;DHT22;64400;44.762;37.698;2023-02-01T08:43:11;9.83;65.51
75782;DHT22;64400;44.762;37.698;2023-02-01T08:45:40;9.74;65.95
75782;DHT22;64400;44.762;37.698;2023-02-01T08:48:10;9.93;66.30
75782;DHT22;64400;44.762;37.698;2023-02-01T08:50:42;10.22;61.95
75782;DHT22;64400;44.762;37.698;2023-02-01T08:53:10;9.97;63.48
75782;DHT22;64400;44.762;37.698;2023-02-01T08:55:41;9.82;64.65
75782;DHT22;64400;44.762;37.698;2023-02-01T08:58:10;9.83;65.66
75782;DHT22;64400;44.762;37.698;2023-02-01T09:00:48;9.95;64.97
75782;DHT22;64400;44.762;37.698;2023-02-01T09:03:16;10.25;63.84
75782;DHT22;64400;44.762;37.698;2023-02-01T09:05:45;10.63;65.21
75782;DHT22;64400;44.762;37.698;2023-02-01T09:08:16;10.55;62.48
75782;DHT22;64400;44.762;37.698;2023-02-01T09:11:03;10.67;64.37
75782;DHT22;64400;44.762;37.698;2023-02-01T09:13:32;10.49;62.53
75782;DHT22;64400;44.762;37.698;2023-02-01T09:16:02;10.54;63.18
75782;DHT22;64400;44.762;37.698;2023-02-01T09:18:30;10.24;66.82
75782;DHT22;64400;44.762;37.698;2023-02-01T09:20:59;10.34;66.81
75782;DHT22;64400;44.762;37.698;2023-02-01T09:23:27;10.72;66.33
75782;DHT22;64400;44.762;37.698;2023-02-01T09:25:59;10.56;66.05
75782;DHT22;64400;44.762;37.698;2023-02-01T09:28:27;10.54;63.43
75782;DHT22;64400;44.762;37.698;2023-02-01T09:31:00;10.42;63.41
75782;DHT22;64400;44.762;37.698;2023-02-01T09:33:28;9.94;66.94
75782;DHT22;64400;44.762;37.698;2023-02-01T09:36:02;9.75;68.13
75782;DHT22;64400;44.762;37.698;2023-02-01T09:38:31;9.32;68.52
75782;DHT22;64400;44.762;37.698;2023-02-01T09:46:55;8.95;72.87
75782;DHT22;64400;44.762;37.698;2023-02-01T09:49:29;8.87;72.51
75782;DHT22;64400;44.762;37.698;2023-02-01T09:52:01;8.73;71.95
75782;DHT22;64400;44.762;37.698;2023-02-01T09:54:42;8.68;72.47
75782;DHT22;64400;44.762;37.698;2023-02-01T09:57:21;9.05;72.49
75782;DHT22;64400;44.762;37.698;2023-02-01T10:00:05;9.24;71.14
75782;DHT22;64400;44.762;37.698;2023-02-01T10:02:42;8.95;71.24
75782;DHT22;64400;44.762;37.698;2023-02-01T10:05:16;8.90;72.87
75782;DHT22;64400;44.762;37.698;2023-02-01T10:08:03;8.75;72.07
75782;DHT22;64400;44.762;37.698;2023-02-01T10:10:43;8.72;73.62
75782;DHT22;64400;44.762;37.698;2023-02-01T10:18:31;8.56;75.08
75782;DHT22;64400;44.762;37.698;2023-02-01T10:26:24;8.95;72.99
75782;DHT22;64400;44.762;37.698;2023-02-01T10:28:57;9.32;70.67
75782;DHT22;64400;44.762;37.698;2023-02-01T10:31:34;9.40;71.00
75782;DHT22;64400;44.762;37.698;2023-02-01T10:34:27;9.36;71.35
75782;DHT22;64400;44.762;37.698;2023-02-01T10:37:17;9.24;72.29
75782;DHT22;64400;44.762;37.698;2023-02-01T10:39:49;9.34;71.03
75782;DHT22;64400;44.762;37.698;2023-02-01T10:42:29;8.89;69.24
75782;DHT22;64400;44.762;37.698;2023-02-01T10:45:02;9.20;70.12
75782;DHT22;64400;44.762;37.698;2023-02-01T10:47:59;9.76;68.99
75782;DHT22;64400;44.762;37.698;2023-02-01T10:53:31;9.79;67.83
75782;DHT22;64400;44.762;37.698;2023-02-01T10:56:10;9.76;68.17
75782;DHT22;64400;44.762;37.698;2023-02-01T10:59:14;9.63;69.36
75782;DHT22;64400;44.762;37.698;2023-02-01T11:01:47;9.33;70.51
75782;DHT22;64400;44.762;37.698;2023-02-01T11:04:23;9.47;71.54
75782;DHT22;64400;44.762;37.698;2023-02-01T11:07:16;9.33;70.24
75782;DHT22;64400;44.762;37.698;2023-02-01T11:09:52;9.29;69.46
75782;DHT22;64400;44.762;37.698;2023-02-01T11:12:32;9.22;69.53
75782;DHT22;64400;44.762;37.698;2023-02-01T11:15:22;8.94;70.51
75782;DHT22;64400;44.762;37.698;2023-02-01T11:17:55;8.94;69.81
75782;DHT22;64400;44.762;37.698;2023-02-01T11:20:38;9.14;77.34
75782;DHT22;64400;44.762;37.698;2023-02-01T11:23:25;9.14;80.07
75782;DHT22;64400;44.762;37.698;2023-02-01T11:25:59;9.11;81.70
75782;DHT22;64400;44.762;37.698;2023-02-01T11:28:40;9.03;83.19
75782;DHT22;64400;44.762;37.698;2023-02-01T11:31:12;9.02;84.15
75782;DHT22;64400;44.762;37.698;2023-02-01T11:33:57;8.94;84.15
75782;DHT22;64400;44.762;37.698;2023-02-01T11:36:30;8.88;84.57
75782;DHT22;64400;44.762;37.698;2023-02-01T11:41:54;8.88;85.19
75782;DHT22;64400;44.762;37.698;2023-02-01T11:44:35;8.85;84.88
75782;DHT22;64400;44.762;37.698;2023-02-01T11:47:20;8.85;84.97
75782;DHT22;64400;44.762;37.698;2023-02-01T11:49:51;8.82;84.83
75782;DHT22;64400;44.762;37.698;2023-02-01T12:03:37;8.62;82.62
75782;DHT22;64400;44.762;37.698;2023-02-01T12:06:37;8.67;82.75
75782;DHT22;64400;44.762;37.698;2023-02-01T12:14:56;8.73;82.01
75782;DHT22;64400;44.762;37.698;2023-02-01T12:37:33;8.18;83.58
75782;DHT22;64400;44.762;37.698;2023-02-01T12:40:19;7.94;84.30
75782;DHT22;64400;44.762;37.698;2023-02-01T12:42:59;7.82;84.56
75782;DHT22;64400;44.762;37.698;2023-02-01T12:45:42;7.72;84.81
75782;DHT22;64400;44.762;37.698;2023-02-01T12:51:12;7.68;84.85
75782;DHT22;64400;44.762;37.698;2023-02-01T12:56:29;7.48;85.58
75782;DHT22;64400;44.762;37.698;2023-02-01T12:59:03;7.35;85.24
75782;DHT22;64400;44.762;37.698;2023-02-01T13:01:39;7.30;85.62
75782;DHT22;64400;44.762;37.698;2023-02-01T13:09:50;7.11;85.42
75782;DHT22;64400;44.762;37.698;2023-02-01T13:12:45;7.12;85.54
75782;DHT22;64400;44.762;37.698;2023-02-01T13:15:19;6.99;85.58
75782;DHT22;64400;44.762;37.698;2023-02-01T13:17:51;6.90;86.29
75782;DHT22;64400;44.762;37.698;2023-02-01T13:23:23;6.70;86.80
75782;DHT22;64400;44.762;37.698;2023-02-01T13:25:53;6.68;86.90
75782;DHT22;64400;44.762;37.698;2023-02-01T13:28:26;6.73;86.79
75782;DHT22;64400;44.762;37.698;2023-02-01T13:42:54;6.44;87.93
75782;DHT22;64400;44.762;37.698;2023-02-01T13:45:48;6.33;88.02
75782;DHT22;64400;44.762;37.698;2023-02-01T13:48:23;6.30;88.37
75782;DHT22;64400;44.762;37.698;2023-02-01T13:50:57;6.27;88.21
75782;DHT22;64400;44.762;37.698;2023-02-01T13:53:37;6.15;88.16
75782;DHT22;64400;44.762;37.698;2023-02-01T13:56:42;6.15;88.50
75782;DHT22;64400;44.762;37.698;2023-02-01T14:05:12;5.87;88.93
75782;DHT22;64400;44.762;37.698;2023-02-01T14:10:48;5.74;89.25
75782;DHT22;64400;44.762;37.698;2023-02-01T14:13:33;5.62;90.22
75782;DHT22;64400;44.762;37.698;2023-02-01T14:29:36;5.48;89.95
75782;DHT22;64400;44.762;37.698;2023-02-01T14:32:17;5.37;89.96
75782;DHT22;64400;44.762;37.698;2023-02-01T14:34:56;5.32;90.37
75782;DHT22;64400;44.762;37.698;2023-02-01T14:37:30;5.30;90.41
75782;DHT22;64400;44.762;37.698;2023-02-01T14:40:16;5.24;90.69
75782;DHT22;64400;44.762;37.698;2023-02-01T14:42:48;5.16;90.90
75782;DHT22;64400;44.762;37.698;2023-02-01T14:47:52;5.04;91.54
75782;DHT22;64400;44.762;37.698;2023-02-01T15:01:01;4.97;91.37
75782;DHT22;64400;44.762;37.698;2023-02-01T15:03:54;4.92;91.50
75782;DHT22;64400;44.762;37.698;2023-02-01T15:06:41;4.89;91.50
75782;DHT22;64400;44.762;37.698;2023-02-01T15:09:23;4.88;91.89
75782;DHT22;64400;44.762;37.698;2023-02-01T15:14:45;4.82;91.93
75782;DHT22;64400;44.762;37.698;2023-02-01T15:17:23;4.80;92.00
75782;DHT22;64400;44.762;37.698;2023-02-01T15:20:00;4.82;92.14
75782;DHT22;64400;44.762;37.698;2023-02-01T15:22:31;4.82;92.08
75782;DHT22;64400;44.762;37.698;2023-02-01T15:25:00;4.80;92.13
75782;DHT22;64400;44.762;37.698;2023-02-01T15:27:32;4.80;92.04
75782;DHT22;64400;44.762;37.698;2023-02-01T15:30:12;4.77;92.24
75782;DHT22;64400;44.762;37.698;2023-02-01T15:32:44;4.74;92.14
75782;DHT22;64400;44.762;37.698;2023-02-01T15:35:32;4.76;91.95
75782;DHT22;64400;44.762;37.698;2023-02-01T15:41:01;4.63;92.45
75782;DHT22;64400;44.762;37.698;2023-02-01T15:43:34;4.61;92.44
75782;DHT22;64400;44.762;37.698;2023-02-01T15:46:11;4.57;92.63
75782;DHT22;64400;44.762;37.698;2023-02-01T15:48:46;4.46;92.82
75782;DHT22;64400;44.762;37.698;2023-02-01T15:51:18;4.38;92.47
75782;DHT22;64400;44.762;37.698;2023-02-01T15:54:00;4.32;92.56
75782;DHT22;64400;44.762;37.698;2023-02-01T15:56:40;4.24;92.47
75782;DHT22;64400;44.762;37.698;2023-02-01T15:59:17;4.16;92.73
75782;DHT22;64400;44.762;37.698;2023-02-01T16:01:46;4.14;92.80
75782;DHT22;64400;44.762;37.698;2023-02-01T16:04:45;4.15;92.77
75782;DHT22;64400;44.762;37.698;2023-02-01T16:07:32;3.90;93.04
75782;DHT22;64400;44.762;37.698;2023-02-01T16:10:21;3.84;93.50
75782;DHT22;64400;44.762;37.698;2023-02-01T16:12:51;3.87;93.42
75782;DHT22;64400;44.762;37.698;2023-02-01T16:15:22;3.88;93.26
75782;DHT22;64400;44.762;37.698;2023-02-01T16:17:53;3.89;93.35
75782;DHT22;64400;44.762;37.698;2023-02-01T16:20:21;3.92;93.16
75782;DHT22;64400;44.762;37.698;2023-02-01T16:22:49;3.91;93.14
75782;DHT22;64400;44.762;37.698;2023-02-01T16:25:18;3.90;92.97
75782;DHT22;64400;44.762;37.698;2023-02-01T16:27:48;3.89;92.51
75782;DHT22;64400;44.762;37.698;2023-02-01T16:30:20;3.87;92.20
75782;DHT22;64400;44.762;37.698;2023-02-01T16:32:55;3.77;92.05
75782;DHT22;64400;44.762;37.698;2023-02-01T16:35:34;3.69;91.37
75782;DHT22;64400;44.762;37.698;2023-02-01T16:38:18;3.61;91.39
75782;DHT22;64400;44.762;37.698;2023-02-01T16:40:49;3.61;91.19
75782;DHT22;64400;44.762;37.698;2023-02-01T16:43:23;3.60;90.67
75782;DHT22;64400;44.762;37.698;2023-02-01T16:45:54;3.57;90.86
75782;DHT22;64400;44.762;37.698;2023-02-01T16:48:26;3.53;90.97
75782;DHT22;64400;44.762;37.698;2023-02-01T16:50:57;3.49;90.45
75782;DHT22;64400;44.762;37.698;2023-02-01T16:53:27;3.48;90.57
75782;DHT22;64400;44.762;37.698;2023-02-01T16:55:56;3.40;90.21
75782;DHT22;64400;44.762;37.698;2023-02-01T16:58:28;3.38;90.84
75782;DHT22;64400;44.762;37.698;2023-02-01T17:00:56;3.34;90.41
75782;DHT22;64400;44.762;37.698;2023-02-01T17:03:30;3.29;90.38
75782;DHT22;64400;44.762;37.698;2023-02-01T17:05:59;3.19;90.67
75782;DHT22;64400;44.762;37.698;2023-02-01T17:08:31;3.14;90.70
75782;DHT22;64400;44.762;37.698;2023-02-01T17:11:05;3.06;91.52
75782;DHT22;64400;44.762;37.698;2023-02-01T17:13:36;3.06;91.46
75782;DHT22;64400;44.762;37.698;2023-02-01T17:16:21;3.03;91.46
75782;DHT22;64400;44.762;37.698;2023-02-01T17:19:06;3.02;91.48
75782;DHT22;64400;44.762;37.698;2023-02-01T17:21:44;2.98;91.55
75782;DHT22;64400;44.762;37.698;2023-02-01T17:24:15;2.94;91.53
75782;DHT22;64400;44.762;37.698;2023-02-01T17:26:44;2.91;91.35
75782;DHT22;64400;44.762;37.698;2023-02-01T17:29:13;2.93;91.30
75782;DHT22;64400;44.762;37.698;2023-02-01T17:31:43;2.87;91.05
75782;DHT22;64400;44.762;37.698;2023-02-01T17:34:20;2.84;90.98
75782;DHT22;64400;44.762;37.698;2023-02-01T17:36:49;2.81;91.30
75782;DHT22;64400;44.762;37.698;2023-02-01T17:39:22;2.83;91.34
75782;DHT22;64400;44.762;37.698;2023-02-01T17:42:10;2.79;91.50
75782;DHT22;64400;44.762;37.698;2023-02-01T17:44:39;2.74;91.62
75782;DHT22;64400;44.762;37.698;2023-02-01T17:47:07;2.75;91.82
75782;DHT22;64400;44.762;37.698;2023-02-01T17:49:35;2.72;92.04
75782;DHT22;64400;44.762;37.698;2023-02-01T17:52:05;2.73;91.79
75782;DHT22;64400;44.762;37.698;2023-02-01T17:54:39;2.75;91.81
75782;DHT22;64400;44.762;37.698;2023-02-01T17:57:14;2.66;92.05
75782;DHT22;64400;44.762;37.698;2023-02-01T17:59:43;2.65;92.30
75782;DHT22;64400;44.762;37.698;2023-02-01T18:02:19;2.60;92.10
75782;DHT22;64400;44.762;37.698;2023-02-01T18:04:49;2.54;92.18
75782;DHT22;64400;44.762;37.698;2023-02-01T18:07:18;2.59;92.13
75782;DHT22;64400;44.762;37.698;2023-02-01T18:09:53;2.58;92.07
75782;DHT22;64400;44.762;37.698;2023-02-01T18:12:27;2.54;91.95
75782;DHT22;64400;44.762;37.698;2023-02-01T18:14:55;2.53;92.07
75782;DHT22;64400;44.762;37.698;2023-02-01T18:17:27;2.52;92.31
75782;DHT22;64400;44.762;37.698;2023-02-01T18:19:56;2.45;92.47
75782;DHT22;64400;44.762;37.698;2023-02-01T18:22:25;2.37;92.70
75782;DHT22;64400;44.762;37.698;2023-02-01T18:25:00;2.32;92.55
75782;DHT22;64400;44.762;37.698;2023-02-01T18:27:32;2.32;92.55
75782;DHT22;64400;44.762;37.698;2023-02-01T18:30:01;2.29;92.56
75782;DHT22;64400;44.762;37.698;2023-02-01T18:32:30;2.27;92.53
75782;DHT22;64400;44.762;37.698;2023-02-01T18:34:58;2.17;92.50
75782;DHT22;64400;44.762;37.698;2023-02-01T18:37:30;2.05;93.05
75782;DHT22;64400;44.762;37.698;2023-02-01T18:39:58;1.97;93.41
75782;DHT22;64400;44.762;37.698;2023-02-01T18:42:29;1.84;93.57